createdAt,value
2023-03-29T00:02:30.719Z,56.60
2023-03-29T00:05:01.308Z,61.81
2023-03-29T00:07:29.598Z,64.36
2023-03-29T00:09:57.677Z,64.68
2023-03-29T00:12:24.589Z,63.60
2023-03-29T00:14:51.168Z,56.32
2023-03-29T00:17:18.669Z,54.27
2023-03-29T00:19:48.532Z,57.95
2023-03-29T00:22:16.811Z,60.60
2023-03-29T00:24:47.337Z,63.94
2023-03-29T00:27:15.809Z,66.85
2023-03-29T00:29:43.276Z,58.46
2023-03-29T00:32:12.108Z,56.53
2023-03-29T00:34:42.178Z,59.76
2023-03-29T00:37:11.735Z,64.50
2023-03-29T00:39:41.454Z,63.27
2023-03-29T00:42:16.948Z,61.92
2023-03-29T00:45:16.996Z,59.10
2023-03-29T00:47:52.570Z,55.20
2023-03-29T00:50:37.306Z,57.40
2023-03-29T00:53:14.469Z,58.15
2023-03-29T00:55:58.595Z,59.09
2023-03-29T00:58:37.598Z,63.95
2023-03-29T01:01:10.993Z,73.61
2023-03-29T01:03:49.319Z,71.51
2023-03-29T01:06:24.185Z,62.95
2023-03-29T01:09:01.040Z,55.40
2023-03-29T01:11:40.932Z,53.39
2023-03-29T01:14:23.540Z,55.51
2023-03-29T01:16:52.688Z,57.66
2023-03-29T01:19:27.463Z,59.17
2023-03-29T01:22:27.903Z,60.50
2023-03-29T01:25:35.152Z,66.43
2023-03-29T01:28:29.165Z,63.06
2023-03-29T01:31:07.143Z,56.16
2023-03-29T01:33:45.559Z,56.18
2023-03-29T01:36:22.801Z,57.47
2023-03-29T01:39:04.571Z,63.21
2023-03-29T01:42:02.453Z,65.82
2023-03-29T01:45:18.868Z,60.84
2023-03-29T01:48:02.198Z,55.67
2023-03-29T01:50:53.789Z,56.87
2023-03-29T01:53:53.178Z,59.91
2023-03-29T01:56:26.924Z,63.06
2023-03-29T01:59:03.833Z,68.53
2023-03-29T02:01:39.730Z,66.60
2023-03-29T02:04:13.712Z,61.93
2023-03-29T02:06:44.173Z,55.42
2023-03-29T02:09:12.092Z,52.68
2023-03-29T02:11:43.551Z,55.06
2023-03-29T02:14:10.368Z,56.38
2023-03-29T02:16:38.991Z,59.93
2023-03-29T02:19:11.977Z,63.94
2023-03-29T02:22:05.949Z,68.12
2023-03-29T02:24:35.908Z,63.51
2023-03-29T02:27:03.867Z,57.73
2023-03-29T02:29:30.641Z,53.32
2023-03-29T02:32:39.711Z,54.30
2023-03-29T02:35:33.722Z,55.14
2023-03-29T02:38:06.342Z,59.26
2023-03-29T02:40:36.965Z,64.78
2023-03-29T02:43:08.510Z,71.09
2023-03-29T02:45:38.576Z,64.52
2023-03-29T02:48:11.471Z,58.96
2023-03-29T02:50:42.227Z,52.10
2023-03-29T02:53:16.416Z,52.47
2023-03-29T02:55:45.467Z,57.03
2023-03-29T02:58:15.079Z,57.67
2023-03-29T03:00:47.584Z,58.56
2023-03-29T03:03:15.096Z,61.11
2023-03-29T03:05:42.376Z,65.26
2023-03-29T03:08:09.508Z,69.22
2023-03-29T03:10:37.075Z,64.96
2023-03-29T03:13:06.075Z,60.53
2023-03-29T03:15:35.137Z,54.05
2023-03-29T03:18:03.822Z,53.69
2023-03-29T03:20:30.643Z,54.38
2023-03-29T03:22:58.055Z,57.31
2023-03-29T03:25:25.049Z,59.87
2023-03-29T03:27:52.561Z,60.66
2023-03-29T03:30:20.401Z,65.70
2023-03-29T03:32:47.467Z,64.36
2023-03-29T03:35:15.742Z,62.43
2023-03-29T03:37:42.386Z,57.96
2023-03-29T03:40:10.970Z,54.54
2023-03-29T03:42:43.441Z,54.49
2023-03-29T03:45:11.753Z,55.72
2023-03-29T03:47:38.386Z,56.71
2023-03-29T03:50:06.288Z,58.32
2023-03-29T03:52:33.072Z,60.14
2023-03-29T03:55:03.021Z,65.18
2023-03-29T03:57:32.473Z,72.06
2023-03-29T03:59:59.786Z,66.71
2023-03-29T04:02:26.856Z,60.43
2023-03-29T04:04:54.389Z,54.06
2023-03-29T04:07:21.565Z,53.60
2023-03-29T04:09:48.962Z,55.77
2023-03-29T04:12:15.889Z,58.74
2023-03-29T04:14:42.449Z,59.90
2023-03-29T04:17:10.502Z,61.69
2023-03-29T04:19:36.927Z,66.93
2023-03-29T04:22:05.593Z,65.53
2023-03-29T04:24:33.630Z,62.68
2023-03-29T04:27:00.007Z,57.48
2023-03-29T04:29:26.645Z,52.37
2023-03-29T04:31:56.038Z,54.86
2023-03-29T04:34:22.734Z,58.29
2023-03-29T04:36:52.491Z,59.71
2023-03-29T04:39:18.971Z,59.66
2023-03-29T04:41:46.925Z,65.31
2023-03-29T04:44:13.680Z,67.48
2023-03-29T04:46:42.346Z,60.14
2023-03-29T04:49:08.809Z,55.80
2023-03-29T04:51:38.016Z,57.06
2023-03-29T04:54:05.709Z,57.11
2023-03-29T04:56:32.752Z,58.15
2023-03-29T04:58:59.629Z,60.28
2023-03-29T05:01:28.404Z,65.81
2023-03-29T05:03:56.311Z,65.51
2023-03-29T05:06:24.228Z,63.26
2023-03-29T05:08:51.614Z,54.96
2023-03-29T05:11:19.634Z,52.55
2023-03-29T05:13:46.174Z,54.78
2023-03-29T05:16:13.276Z,54.96
2023-03-29T05:18:40.334Z,55.76
2023-03-29T05:21:07.149Z,58.07
2023-03-29T05:23:34.457Z,60.86
2023-03-29T05:26:04.507Z,63.30
2023-03-29T05:28:33.098Z,69.11
2023-03-29T05:31:06.420Z,66.97
2023-03-29T05:33:34.282Z,62.40
2023-03-29T05:36:15.867Z,54.26
2023-03-29T05:38:49.227Z,54.34
2023-03-29T05:41:17.301Z,56.28
2023-03-29T05:43:45.924Z,57.41
2023-03-29T05:46:12.971Z,61.11
2023-03-29T05:48:40.234Z,63.58
2023-03-29T05:51:07.714Z,67.01
2023-03-29T05:53:37.249Z,63.35
2023-03-29T05:56:04.042Z,55.07
2023-03-29T05:58:33.673Z,52.66
2023-03-29T06:01:04.366Z,52.92
2023-03-29T06:03:34.201Z,55.07
2023-03-29T06:06:05.794Z,57.26
2023-03-29T06:08:34.630Z,58.41
2023-03-29T06:11:05.496Z,59.56
2023-03-29T06:13:33.747Z,64.93
2023-03-29T06:16:06.567Z,65.83
2023-03-29T06:18:34.333Z,65.72
2023-03-29T06:21:03.246Z,56.42
2023-03-29T06:23:32.044Z,51.79
2023-03-29T06:25:59.492Z,52.31
2023-03-29T06:28:27.534Z,54.58
2023-03-29T06:30:56.042Z,56.26
2023-03-29T06:33:24.531Z,56.55
2023-03-29T06:35:51.185Z,58.43
2023-03-29T06:38:19.544Z,65.20
2023-03-29T06:40:47.636Z,66.17
2023-03-29T06:43:16.407Z,58.78
2023-03-29T06:45:44.900Z,53.12
2023-03-29T06:48:13.265Z,52.45
2023-03-29T06:50:41.311Z,54.89
2023-03-29T06:53:10.973Z,58.48
2023-03-29T06:55:37.639Z,62.02
2023-03-29T06:58:07.630Z,64.16
2023-03-29T07:00:37.579Z,62.73
2023-03-29T07:03:13.136Z,54.84
2023-03-29T07:05:44.518Z,54.33
2023-03-29T07:08:13.227Z,54.45
2023-03-29T07:10:47.595Z,57.83
2023-03-29T07:13:16.737Z,58.16
2023-03-29T07:15:44.412Z,56.98
2023-03-29T07:18:12.224Z,59.37
2023-03-29T07:20:40.013Z,60.44
2023-03-29T07:23:08.902Z,59.43
2023-03-29T07:25:38.500Z,60.81
2023-03-29T07:28:06.792Z,60.83
2023-03-29T07:30:35.939Z,67.00
2023-03-29T07:33:04.564Z,75.17
2023-03-29T07:35:32.150Z,66.91
2023-03-29T07:38:01.817Z,62.98
2023-03-29T07:40:29.163Z,52.33
2023-03-29T07:42:56.797Z,52.42
2023-03-29T07:45:29.730Z,51.60
2023-03-29T07:47:59.325Z,53.30
2023-03-29T07:50:31.986Z,53.63
2023-03-29T07:53:00.311Z,56.29
2023-03-29T07:55:30.803Z,55.35
2023-03-29T07:57:57.595Z,55.83
2023-03-29T08:00:24.643Z,57.09
2023-03-29T08:02:53.266Z,57.09
2023-03-29T08:05:37.684Z,57.59
2023-03-29T08:08:10.294Z,59.36
2023-03-29T08:10:38.832Z,66.09
2023-03-29T08:13:08.526Z,63.47
2023-03-29T08:15:38.846Z,62.68
2023-03-29T08:18:07.276Z,52.93
2023-03-29T08:20:34.475Z,49.64
2023-03-29T08:23:05.994Z,49.79
2023-03-29T08:25:37.077Z,51.18
2023-03-29T08:28:07.206Z,54.68
2023-03-29T08:30:34.941Z,54.58
2023-03-29T08:33:01.462Z,56.41
2023-03-29T08:35:29.399Z,55.70
2023-03-29T08:37:56.338Z,57.50
2023-03-29T08:40:29.320Z,58.66
2023-03-29T08:43:40.837Z,62.22
2023-03-29T08:46:35.311Z,63.55
2023-03-29T08:49:07.384Z,61.86
2023-03-29T08:51:48.062Z,52.56
2023-03-29T08:54:25.294Z,50.14
2023-03-29T08:57:02.382Z,51.09
2023-03-29T08:59:32.639Z,52.58
2023-03-29T09:02:05.406Z,55.26
2023-03-29T09:04:36.174Z,58.53
2023-03-29T09:07:10.192Z,58.49
2023-03-29T09:09:37.630Z,58.48
2023-03-29T09:12:31.801Z,59.71
2023-03-29T09:15:10.714Z,61.00
2023-03-29T09:18:25.691Z,60.46
2023-03-29T09:21:24.001Z,65.45
2023-03-29T09:24:38.858Z,64.77
2023-03-29T09:27:27.101Z,57.12
2023-03-29T09:30:42.382Z,49.65
2023-03-29T09:33:27.075Z,48.31
2023-03-29T09:36:32.667Z,53.04
2023-03-29T09:39:00.278Z,51.83
2023-03-29T09:41:35.788Z,56.78
2023-03-29T09:44:27.773Z,59.02
2023-03-29T09:47:09.454Z,60.58
2023-03-29T09:49:44.762Z,60.63
2023-03-29T09:52:16.836Z,60.67
2023-03-29T09:54:45.987Z,60.97
2023-03-29T09:57:18.481Z,62.95
2023-03-29T09:59:50.178Z,62.45
2023-03-29T10:02:20.459Z,55.46
2023-03-29T10:05:03.569Z,55.01
2023-03-29T10:07:44.140Z,57.59
2023-03-29T10:10:24.254Z,59.68
2023-03-29T10:12:57.529Z,60.53
2023-03-29T10:15:30.107Z,61.85
2023-03-29T10:18:10.212Z,62.45
2023-03-29T10:20:41.630Z,63.21
2023-03-29T10:23:20.723Z,57.50
2023-03-29T10:25:52.655Z,54.22
2023-03-29T10:28:23.929Z,55.59
2023-03-29T10:31:01.447Z,57.60
2023-03-29T10:33:34.202Z,58.16
2023-03-29T10:36:09.592Z,59.70
2023-03-29T10:38:38.041Z,61.08
2023-03-29T10:41:17.202Z,61.64
2023-03-29T10:43:51.186Z,61.76
2023-03-29T10:46:30.694Z,60.96
2023-03-29T10:49:05.217Z,62.83
2023-03-29T10:51:33.878Z,59.61
2023-03-29T10:54:04.868Z,56.28
2023-03-29T10:56:50.763Z,57.57
2023-03-29T10:59:48.636Z,58.83
2023-03-29T11:02:15.059Z,59.71
2023-03-29T11:05:12.911Z,60.85
2023-03-29T11:08:31.211Z,60.59
2023-03-29T11:11:42.141Z,61.29
2023-03-29T11:15:10.261Z,61.88
2023-03-29T11:18:12.124Z,61.96
2023-03-29T11:21:10.616Z,61.03
2023-03-29T11:24:20.396Z,63.03
2023-03-29T11:27:18.976Z,61.49
2023-03-29T11:30:16.292Z,53.47
2023-03-29T11:33:08.939Z,51.63
2023-03-29T11:36:03.720Z,53.37
2023-03-29T11:38:58.462Z,53.88
2023-03-29T11:41:38.613Z,56.19
2023-03-29T11:44:30.376Z,56.21
2023-03-29T11:47:07.929Z,58.65
2023-03-29T11:49:48.918Z,58.99
2023-03-29T11:52:48.861Z,59.31
2023-03-29T11:55:25.931Z,59.79
2023-03-29T11:58:02.965Z,59.82
2023-03-29T12:00:41.409Z,59.82
2023-03-29T12:03:45.491Z,60.07
2023-03-29T12:06:27.687Z,60.18
2023-03-29T12:09:26.026Z,60.28
2023-03-29T12:12:26.596Z,60.57
2023-03-29T12:15:02.602Z,60.25
2023-03-29T12:18:01.590Z,60.10
2023-03-29T12:20:35.596Z,60.06
2023-03-29T12:23:04.789Z,60.55
2023-03-29T12:26:02.106Z,59.96
2023-03-29T12:29:17.561Z,60.35
2023-03-29T12:32:10.863Z,60.56
2023-03-29T12:35:05.248Z,60.48
2023-03-29T12:38:29.368Z,60.28
2023-03-29T12:41:01.479Z,60.70
2023-03-29T12:43:36.945Z,60.41
2023-03-29T12:46:16.639Z,60.24
2023-03-29T12:48:49.676Z,60.74
2023-03-29T12:51:27.376Z,61.06
2023-03-29T12:54:12.167Z,61.36
2023-03-29T12:56:55.112Z,61.28
2023-03-29T12:59:48.236Z,61.48
2023-03-29T13:02:14.817Z,60.94
2023-03-29T13:05:00.399Z,60.50
2023-03-29T13:07:49.019Z,59.94
2023-03-29T13:10:40.754Z,59.94
2023-03-29T13:13:17.362Z,59.82
2023-03-29T13:15:45.482Z,59.59
2023-03-29T13:18:54.729Z,59.99
2023-03-29T13:22:29.462Z,59.69
2023-03-29T13:25:21.275Z,60.10
2023-03-29T13:28:14.151Z,60.33
2023-03-29T13:31:40.770Z,60.64
2023-03-29T13:34:40.372Z,60.34
2023-03-29T13:38:03.113Z,60.38
2023-03-29T13:40:45.760Z,60.70
2023-03-29T13:43:21.625Z,60.47
2023-03-29T13:46:00.938Z,60.05
2023-03-29T13:48:50.585Z,60.22
2023-03-29T13:51:16.985Z,60.36
2023-03-29T13:53:58.577Z,60.58
2023-03-29T13:56:36.977Z,60.57
2023-03-29T13:59:19.409Z,60.60
2023-03-29T14:01:57.229Z,59.73
2023-03-29T14:04:30.536Z,59.97
2023-03-29T14:07:00.521Z,60.21
2023-03-29T14:09:36.735Z,60.22
2023-03-29T14:12:12.288Z,59.74
2023-03-29T14:14:58.235Z,59.50
2023-03-29T14:17:27.112Z,59.35
2023-03-29T14:20:02.662Z,59.60
2023-03-29T14:22:33.401Z,59.66
2023-03-29T14:25:15.756Z,59.70
2023-03-29T14:27:43.684Z,59.52
2023-03-29T14:30:27.287Z,59.33
2023-03-29T14:32:56.163Z,59.07
2023-03-29T14:35:32.001Z,59.39
2023-03-29T14:38:00.879Z,59.88
2023-03-29T14:40:30.197Z,59.99
2023-03-29T14:43:01.875Z,60.00
2023-03-29T14:45:29.810Z,60.28
2023-03-29T14:47:58.592Z,60.27
2023-03-29T14:50:30.941Z,60.45
2023-03-29T14:53:01.183Z,60.51
2023-03-29T14:55:27.870Z,60.64
2023-03-29T14:57:57.258Z,60.44
2023-03-29T15:00:38.596Z,60.00
2023-03-29T15:03:14.448Z,59.93
2023-03-29T15:05:50.800Z,60.00
2023-03-29T15:08:54.129Z,59.51
2023-03-29T15:11:31.432Z,59.40
2023-03-29T15:14:33.838Z,60.05
2023-03-29T15:17:39.502Z,60.65
2023-03-29T15:20:40.051Z,60.92
2023-03-29T15:23:15.773Z,60.82
2023-03-29T15:26:01.731Z,61.05
2023-03-29T15:28:36.005Z,61.30
2023-03-29T15:31:21.510Z,61.27
2023-03-29T15:33:51.863Z,61.35
2023-03-29T15:36:18.632Z,61.44
2023-03-29T15:38:49.973Z,61.60
2023-03-29T15:41:16.474Z,61.53
2023-03-29T15:43:42.919Z,61.74
2023-03-29T15:46:16.288Z,61.88
2023-03-29T15:48:42.838Z,62.09
2023-03-29T15:51:12.309Z,61.85
2023-03-29T15:53:39.978Z,62.13
2023-03-29T15:56:14.030Z,62.20
2023-03-29T15:58:40.959Z,62.38
2023-03-29T16:01:40.281Z,64.02
2023-03-29T16:04:17.451Z,69.96
2023-03-29T16:06:52.181Z,69.27
2023-03-29T16:09:21.970Z,60.75
2023-03-29T16:11:49.609Z,52.34
2023-03-29T16:14:27.232Z,49.58
2023-03-29T16:16:55.850Z,49.35
2023-03-29T16:19:27.557Z,50.26
2023-03-29T16:21:57.388Z,50.70
2023-03-29T16:24:30.797Z,52.95
2023-03-29T16:26:58.657Z,53.21
2023-03-29T16:29:25.522Z,53.34
2023-03-29T16:31:54.333Z,54.21
2023-03-29T16:34:23.247Z,55.79
2023-03-29T16:36:52.833Z,56.86
2023-03-29T16:39:19.644Z,56.96
2023-03-29T16:41:48.399Z,58.46
2023-03-29T16:44:21.596Z,59.35
2023-03-29T16:46:53.262Z,59.38
2023-03-29T16:49:20.462Z,59.91
2023-03-29T16:51:47.619Z,60.70
2023-03-29T16:54:19.382Z,60.10
2023-03-29T16:56:48.060Z,60.95
2023-03-29T16:59:14.632Z,60.80
2023-03-29T17:01:42.108Z,60.64
2023-03-29T17:04:08.973Z,60.62
2023-03-29T17:06:35.600Z,60.44
2023-03-29T17:09:03.253Z,60.44
2023-03-29T17:11:30.187Z,61.05
2023-03-29T17:13:56.868Z,61.06
2023-03-29T17:16:23.725Z,61.32
2023-03-29T17:18:50.531Z,61.76
2023-03-29T17:21:20.714Z,65.73
2023-03-29T17:23:47.646Z,73.33
2023-03-29T17:26:14.886Z,67.24
2023-03-29T17:28:42.949Z,60.37
2023-03-29T17:31:09.629Z,54.68
2023-03-29T17:33:36.767Z,50.56
2023-03-29T17:36:06.060Z,51.39
2023-03-29T17:38:34.557Z,52.87
2023-03-29T17:41:02.436Z,54.08
2023-03-29T17:43:29.784Z,54.86
2023-03-29T17:45:56.641Z,55.77
2023-03-29T17:48:24.447Z,56.28
2023-03-29T17:50:51.378Z,57.25
2023-03-29T17:53:18.501Z,59.11
2023-03-29T17:55:45.246Z,60.04
2023-03-29T17:58:12.167Z,61.27
2023-03-29T18:00:39.662Z,66.99
2023-03-29T18:03:06.235Z,71.77
2023-03-29T18:05:35.416Z,64.16
2023-03-29T18:08:03.586Z,55.33
2023-03-29T18:10:30.206Z,51.57
2023-03-29T18:12:56.762Z,52.45
2023-03-29T18:15:23.513Z,52.90
2023-03-29T18:17:50.368Z,54.38
2023-03-29T18:20:18.732Z,56.95
2023-03-29T18:22:45.969Z,58.36
2023-03-29T18:25:12.367Z,59.84
2023-03-29T18:27:39.790Z,60.18
2023-03-29T18:30:08.258Z,61.37
2023-03-29T18:32:35.667Z,61.67
2023-03-29T18:35:02.791Z,67.38
2023-03-29T18:37:30.515Z,72.51
2023-03-29T18:39:57.098Z,64.38
2023-03-29T18:42:23.631Z,54.90
2023-03-29T18:44:53.585Z,51.93
2023-03-29T18:47:21.392Z,52.90
2023-03-29T18:49:48.107Z,53.68
2023-03-29T18:52:17.253Z,55.54
2023-03-29T18:54:44.115Z,56.98
2023-03-29T18:57:13.393Z,57.86
2023-03-29T18:59:40.321Z,58.89
2023-03-29T19:02:06.842Z,61.63
2023-03-29T19:04:34.848Z,71.33
2023-03-29T19:07:02.917Z,71.42
2023-03-29T19:09:30.238Z,63.88
2023-03-29T19:11:57.217Z,55.87
2023-03-29T19:14:24.855Z,51.52
2023-03-29T19:16:52.036Z,52.60
2023-03-29T19:19:21.448Z,54.65
2023-03-29T19:21:51.280Z,57.06
2023-03-29T19:24:18.498Z,58.91
2023-03-29T19:26:47.358Z,59.21
2023-03-29T19:29:14.376Z,60.02
2023-03-29T19:31:43.563Z,60.82
2023-03-29T19:34:12.203Z,67.10
2023-03-29T19:36:40.428Z,72.74
2023-03-29T19:39:06.978Z,64.53
2023-03-29T19:41:33.815Z,54.21
2023-03-29T19:44:00.509Z,51.08
2023-03-29T19:46:31.519Z,52.55
2023-03-29T19:48:59.799Z,54.46
2023-03-29T19:51:27.993Z,55.10
2023-03-29T19:53:56.940Z,56.15
2023-03-29T19:56:26.646Z,56.97
2023-03-29T19:58:53.633Z,58.65
2023-03-29T20:01:21.694Z,59.74
2023-03-29T20:03:50.780Z,60.49
2023-03-29T20:06:19.689Z,61.43
2023-03-29T20:08:47.454Z,67.76
2023-03-29T20:11:14.837Z,74.18
2023-03-29T20:13:45.823Z,65.22
2023-03-29T20:16:16.653Z,56.79
2023-03-29T20:18:45.098Z,49.67
2023-03-29T20:21:16.512Z,50.18
2023-03-29T20:23:45.623Z,51.64
2023-03-29T20:26:12.838Z,52.92
2023-03-29T20:28:39.443Z,55.14
2023-03-29T20:31:10.429Z,56.28
2023-03-29T20:33:38.341Z,58.07
2023-03-29T20:36:06.003Z,58.49
2023-03-29T20:38:32.658Z,60.25
2023-03-29T20:40:59.450Z,60.01
2023-03-29T20:43:25.895Z,60.65
2023-03-29T20:45:54.319Z,67.52
2023-03-29T20:48:23.830Z,75.90
2023-03-29T20:50:50.803Z,66.00
2023-03-29T20:53:20.240Z,58.54
2023-03-29T20:55:47.174Z,51.07
2023-03-29T20:58:15.155Z,50.84
2023-03-29T21:00:41.552Z,52.78
2023-03-29T21:03:09.007Z,53.11
2023-03-29T21:05:35.861Z,54.30
2023-03-29T21:08:03.682Z,55.75
2023-03-29T21:10:32.124Z,58.69
2023-03-29T21:12:59.993Z,60.50
2023-03-29T21:15:29.664Z,60.75
2023-03-29T21:17:57.481Z,69.90
2023-03-29T21:20:24.775Z,76.49
2023-03-29T21:22:51.948Z,70.98
2023-03-29T21:25:19.211Z,61.15
2023-03-29T21:27:49.144Z,53.34
2023-03-29T21:30:15.945Z,51.97
2023-03-29T21:32:42.532Z,53.21
2023-03-29T21:35:10.126Z,55.03
2023-03-29T21:37:37.717Z,56.55
2023-03-29T21:40:07.876Z,59.02
2023-03-29T21:42:34.839Z,58.98
2023-03-29T21:45:02.466Z,59.38
2023-03-29T21:47:31.324Z,63.50
2023-03-29T21:49:58.694Z,73.41
2023-03-29T21:52:27.115Z,68.88
2023-03-29T21:54:53.694Z,62.16
2023-03-29T21:57:21.728Z,55.89
2023-03-29T21:59:51.497Z,52.51
2023-03-29T22:02:19.232Z,54.03
2023-03-29T22:04:45.785Z,54.98
2023-03-29T22:07:14.558Z,56.16
2023-03-29T22:09:41.911Z,57.87
2023-03-29T22:12:09.478Z,58.57
2023-03-29T22:14:36.022Z,58.70
2023-03-29T22:17:06.413Z,59.98
2023-03-29T22:19:39.871Z,60.62
2023-03-29T22:22:12.895Z,61.45
2023-03-29T22:24:41.375Z,70.41
2023-03-29T22:27:11.285Z,76.87
2023-03-29T22:29:39.042Z,70.08
2023-03-29T22:32:07.150Z,63.27
2023-03-29T22:34:36.127Z,57.81
2023-03-29T22:37:04.153Z,52.35
2023-03-29T22:39:33.842Z,52.52
2023-03-29T22:42:01.019Z,53.87
2023-03-29T22:44:28.473Z,56.26
2023-03-29T22:46:55.308Z,57.19
2023-03-29T22:49:22.396Z,58.10
2023-03-29T22:51:49.206Z,58.81
2023-03-29T22:54:18.725Z,60.04
2023-03-29T22:56:46.329Z,60.31
2023-03-29T22:59:15.230Z,61.27
2023-03-29T23:01:42.288Z,67.08
2023-03-29T23:04:08.850Z,72.45
2023-03-29T23:06:38.233Z,65.18
2023-03-29T23:09:04.857Z,61.23
2023-03-29T23:11:31.493Z,53.62
2023-03-29T23:13:59.438Z,50.07
2023-03-29T23:16:28.026Z,50.87
2023-03-29T23:18:56.021Z,52.80
2023-03-29T23:21:24.182Z,53.57
2023-03-29T23:23:52.381Z,54.54
2023-03-29T23:26:22.495Z,56.35
2023-03-29T23:28:56.159Z,58.05
2023-03-29T23:31:26.303Z,59.27
2023-03-29T23:33:53.921Z,59.97
2023-03-29T23:36:22.625Z,60.24
2023-03-29T23:38:51.927Z,60.62
2023-03-29T23:41:19.535Z,61.11
2023-03-29T23:43:50.166Z,68.83
2023-03-29T23:46:18.583Z,75.26
2023-03-29T23:48:50.171Z,66.39
2023-03-29T23:51:22.100Z,58.97
2023-03-29T23:53:50.692Z,50.36
2023-03-29T23:56:17.427Z,49.92
2023-03-29T23:58:44.431Z,50.83
